Claxton, GA (30417)

1:51 PM EDT on September 02, 2014 (GMT -0400)
Claxton-Evans County | Change Station
CLOSE
Current Station
Airport
Location: Claxton,
Elevation: 112 ft
Nearby Weather Stations

Elev 112 ft 32.20 °N, 81.87 °W | Updated 16 minutes ago

Thunderstorm
Thunderstorm
90 °F
Feels Like 105 °F
N
7
Wind Variable Wind from WNW

Today
High -- | Low -- °F
--% Chance of Precip.
Yesterday
High -- | Low -- °F
Precip. -- in
7:03 AM 7:50 PM
First Quarter, 53% visible
Pressure 30.06 in
Visibility 10.0 miles
Clouds Clear
Heat Index 105 °F
Dew Point 79 °F
Humidity 70%
Rainfall 0.00 in
Snow Depth Not available.
UV 12 out of 12
Pollen 7.90 out of 12
Air Quality Not available.
Flu Activity Not available.
METAR KCWV 021735Z AUTO 30006KT 10SM TS CLR 32/26 A3006 RMK AO2 LTG DSNT E THRU S

More Conditions Fewer Conditions

Pressure 30.06 in
Visibility 10.0 miles
Clouds Clear
Heat Index 105 °F
Dew Point 79 °F
Humidity 70%
Rainfall 0.00 in
Snow Depth Not available.
UV 12 out of 12
Pollen 7.90 out of 12
Air Quality Not available.
Flu Activity Not available.
METAR KCWV 021735Z AUTO 30006KT 10SM TS CLR 32/26 A3006 RMK AO2 LTG DSNT E THRU S

More Conditions Fewer Conditions

10-Day Weather Forecast

Almanac

Astronomy

Sep. 02, 2014 Rise Set
Actual Time 7:03 AM EDT 7:50 PM EDT
Civil Twilight 6:38 AM EDT 8:15 PM EDT
Nautical Twilight 6:09 AM EDT 8:44 PM EDT
Astronomical Twilight 5:39 AM EDT 9:14 PM EDT
Moon 2:21 PM EDT 12:15 AM EDT
Length of Visible Light 13h 36m
Length of Day
12h 47m
Tomorrow will be 1m 53s shorter.
First Quarter, 53% of the Moon is Illuminated
Today
First Quarter
Sep 8
Full
Sep 15
Last Quarter
Sep 24
New
Oct 1
First Quarter

Today's Extremes

State Highs State Lows

Community

WunderPhotos

Upload Photos

1,749,724 photos uploaded!

WunderBlogs® & News

Nearby

Snow Depth

Station Depth Elevation
No new snow has been reported.

Earthquake Activity

City Distance Mag. Time & Date
No recent earthquake activity has been reported nearby.
Minimum magnitude displayed is 2.5.

Coastal Water Temperatures

Place Temperature
No Stations Reporting

Nearby Weather Stations